createdAt,value
2023-02-14T00:02:06.381Z,98932.94
2023-02-14T00:04:34.424Z,98945.75
2023-02-14T00:07:02.039Z,98947.59
2023-02-14T00:09:29.776Z,98942.63
2023-02-14T00:11:58.662Z,98941.16
2023-02-14T00:14:43.988Z,98938.69
2023-02-14T00:17:11.602Z,98937.09
2023-02-14T00:19:39.215Z,98935.25
2023-02-14T00:22:06.872Z,98931.41
2023-02-14T00:24:34.447Z,98934.78
2023-02-14T00:27:03.312Z,98932.34
2023-02-14T00:29:32.564Z,98922.13
2023-02-14T00:32:00.498Z,98937.78
2023-02-14T00:34:29.083Z,98933.09
2023-02-14T00:36:56.650Z,98937.22
2023-02-14T00:39:24.188Z,98942.78
2023-02-14T00:41:52.055Z,98935.41
2023-02-14T00:44:20.978Z,98940.47
2023-02-14T00:46:48.508Z,98944.56
2023-02-14T00:49:16.170Z,98936.41
2023-02-14T00:51:43.958Z,98940.38
2023-02-14T00:54:11.508Z,98944.94
2023-02-14T00:56:39.048Z,98951.75
2023-02-14T00:59:06.607Z,98953.38
2023-02-14T01:01:35.488Z,98952.75
2023-02-14T01:04:03.042Z,98947.09
2023-02-14T01:06:30.570Z,98959.38
2023-02-14T01:08:58.446Z,98952.00
2023-02-14T01:11:28.158Z,98954.59
2023-02-14T01:13:57.996Z,98958.03
2023-02-14T01:16:28.342Z,98962.97
2023-02-14T01:18:57.720Z,98952.47
2023-02-14T01:21:27.020Z,98949.84
2023-02-14T01:23:59.594Z,98954.06
2023-02-14T01:26:28.375Z,98948.53
2023-02-14T01:28:56.464Z,98954.59
2023-02-14T01:31:27.831Z,98958.44
2023-02-14T01:33:57.238Z,98951.38
2023-02-14T01:36:26.379Z,98952.22
2023-02-14T01:38:55.221Z,98960.13
2023-02-14T01:41:23.897Z,98956.75
2023-02-14T01:43:53.722Z,98954.53
2023-02-14T01:46:21.265Z,98949.31
2023-02-14T01:48:49.015Z,98934.13
2023-02-14T01:51:19.990Z,98939.66
2023-02-14T01:53:48.430Z,98944.47
2023-02-14T01:56:20.901Z,98937.72
2023-02-14T01:58:50.732Z,98938.09
2023-02-14T02:01:18.972Z,98946.69
2023-02-14T02:03:49.749Z,98939.72
2023-02-14T02:06:21.068Z,98939.63
2023-02-14T02:08:53.402Z,98929.91
2023-02-14T02:11:20.937Z,98936.91
2023-02-14T02:13:48.689Z,98923.16
2023-02-14T02:16:41.085Z,98930.50
2023-02-14T02:19:37.672Z,98923.69
2023-02-14T02:22:15.702Z,98924.69
2023-02-14T02:24:50.127Z,98923.53
2023-02-14T02:27:27.540Z,98924.22
2023-02-14T02:30:30.344Z,98927.59
2023-02-14T02:33:19.557Z,98925.50
2023-02-14T02:36:04.372Z,98917.91
2023-02-14T02:38:46.152Z,98927.41
2023-02-14T02:41:20.439Z,98922.91
2023-02-14T02:43:55.121Z,98919.94
2023-02-14T02:46:43.747Z,98926.38
2023-02-14T02:49:37.365Z,98928.81
2023-02-14T02:52:26.980Z,98923.84
2023-02-14T02:54:58.198Z,98931.44
2023-02-14T02:57:29.683Z,98932.13
2023-02-14T02:59:57.983Z,98931.69
2023-02-14T03:02:29.325Z,98937.78
2023-02-14T03:04:57.984Z,98927.91
2023-02-14T03:07:39.459Z,98925.81
2023-02-14T03:10:10.496Z,98919.38
2023-02-14T03:12:53.424Z,98917.53
2023-02-14T03:15:23.769Z,98916.72
2023-02-14T03:17:59.351Z,98924.69
2023-02-14T03:20:33.800Z,98922.09
2023-02-14T03:23:05.737Z,98925.22
2023-02-14T03:25:42.266Z,98919.59
2023-02-14T03:28:14.542Z,98922.19
2023-02-14T03:30:48.413Z,98920.91
2023-02-14T03:33:19.909Z,98924.06
2023-02-14T03:35:52.403Z,98921.16
2023-02-14T03:38:26.144Z,98930.81
2023-02-14T03:40:58.288Z,98918.75
2023-02-14T03:43:28.460Z,98918.91
2023-02-14T03:45:59.302Z,98922.94
2023-02-14T03:48:27.709Z,98927.44
2023-02-14T03:50:56.080Z,98918.47
2023-02-14T03:53:27.636Z,98927.91
2023-02-14T03:55:59.691Z,98923.91
2023-02-14T03:58:29.688Z,98937.84
2023-02-14T04:01:01.212Z,98941.09
2023-02-14T04:03:29.835Z,98937.31
2023-02-14T04:05:57.475Z,98939.72
2023-02-14T04:08:30.151Z,98932.09
2023-02-14T04:11:00.555Z,98935.63
2023-02-14T04:13:28.990Z,98931.09
2023-02-14T04:15:56.605Z,98928.59
2023-02-14T04:18:42.090Z,98938.16
2023-02-14T04:21:09.820Z,98938.25
2023-02-14T04:23:38.681Z,98944.72
2023-02-14T04:26:06.254Z,98940.22
2023-02-14T04:28:34.264Z,98924.28
2023-02-14T04:31:03.212Z,98928.63
2023-02-14T04:33:31.313Z,98926.66
2023-02-14T04:35:58.877Z,98921.31
2023-02-14T04:38:26.429Z,98913.72
2023-02-14T04:40:55.357Z,98915.44
2023-02-14T04:43:22.905Z,98900.97
2023-02-14T04:45:50.408Z,98921.75
2023-02-14T04:48:18.005Z,98914.06
2023-02-14T04:50:45.496Z,98908.72
2023-02-14T04:53:13.003Z,98910.03
2023-02-14T04:55:40.579Z,98908.03
2023-02-14T04:58:09.414Z,98913.25
2023-02-14T05:00:37.063Z,98916.88
2023-02-14T05:03:04.766Z,98912.88
2023-02-14T05:05:32.247Z,98908.50
2023-02-14T05:07:59.732Z,98907.63
2023-02-14T05:10:27.291Z,98911.00
2023-02-14T05:12:54.786Z,98904.75
2023-02-14T05:15:23.717Z,98898.47
2023-02-14T05:17:51.224Z,98903.69
2023-02-14T05:20:19.063Z,98907.34
2023-02-14T05:22:46.595Z,98904.97
2023-02-14T05:25:14.242Z,98904.81
2023-02-14T05:27:41.748Z,98907.97
2023-02-14T05:30:10.494Z,98904.59
2023-02-14T05:32:39.393Z,98903.19
2023-02-14T05:35:07.652Z,98898.69
2023-02-14T05:37:35.205Z,98898.91
2023-02-14T05:40:02.722Z,98901.13
2023-02-14T05:42:30.219Z,98906.50
2023-02-14T05:44:57.761Z,98901.13
2023-02-14T05:47:25.367Z,98896.75
2023-02-14T05:49:54.259Z,98915.28
2023-02-14T05:52:21.903Z,98916.03
2023-02-14T05:54:49.417Z,98912.66
2023-02-14T05:57:16.953Z,98920.34
2023-02-14T05:59:44.491Z,98928.97
2023-02-14T06:02:12.015Z,98930.91
2023-02-14T06:04:39.680Z,98935.63
2023-02-14T06:07:08.828Z,98930.75
2023-02-14T06:09:36.314Z,98932.81
2023-02-14T06:12:04.196Z,98921.53
2023-02-14T06:14:31.744Z,98931.59
2023-02-14T06:16:59.379Z,98928.06
2023-02-14T06:19:26.977Z,98925.81
2023-02-14T06:21:54.718Z,98934.91
2023-02-14T06:24:23.892Z,98939.63
2023-02-14T06:26:51.412Z,98941.72
2023-02-14T06:29:19.386Z,98928.97
2023-02-14T06:31:47.081Z,98941.72
2023-02-14T06:34:16.123Z,98935.72
2023-02-14T06:36:43.853Z,98941.25
2023-02-14T06:39:11.408Z,98941.25
2023-02-14T06:41:40.265Z,98942.44
2023-02-14T06:44:08.847Z,98940.47
2023-02-14T06:46:36.399Z,98929.28
2023-02-14T06:49:03.958Z,98931.44
2023-02-14T06:51:31.517Z,98934.63
2023-02-14T06:53:59.021Z,98930.06
2023-02-14T06:56:26.554Z,98931.78
2023-02-14T06:58:55.431Z,98931.75
2023-02-14T07:01:23.111Z,98925.25
2023-02-14T07:03:50.939Z,98926.69
2023-02-14T07:06:18.519Z,98918.81
2023-02-14T07:08:46.040Z,98921.88
2023-02-14T07:11:13.553Z,98924.28
2023-02-14T07:13:41.200Z,98913.84
2023-02-14T07:16:10.242Z,98916.53
2023-02-14T07:18:37.926Z,98914.44
2023-02-14T07:21:05.737Z,98912.75
2023-02-14T07:23:33.523Z,98905.19
2023-02-14T07:26:01.012Z,98893.06
2023-02-14T07:28:30.370Z,98911.00
2023-02-14T07:31:00.640Z,98892.28
2023-02-14T07:33:29.906Z,98904.47
2023-02-14T07:35:57.626Z,98894.03
2023-02-14T07:38:25.485Z,98897.94
2023-02-14T07:40:54.925Z,98892.72
2023-02-14T07:43:22.439Z,98894.38
2023-02-14T07:45:50.043Z,98898.22
2023-02-14T07:48:17.602Z,98897.81
2023-02-14T07:50:46.494Z,98891.19
2023-02-14T07:53:14.054Z,98896.34
2023-02-14T07:55:41.602Z,98883.78
2023-02-14T07:58:09.208Z,98892.53
2023-02-14T08:00:37.130Z,98880.28
2023-02-14T08:03:04.736Z,98884.63
2023-02-14T08:05:32.233Z,98884.66
2023-02-14T08:08:01.260Z,98887.03
2023-02-14T08:10:28.849Z,98888.38
2023-02-14T08:13:03.466Z,98888.78
2023-02-14T08:15:50.570Z,98889.53
2023-02-14T08:18:18.937Z,98892.53
2023-02-14T08:20:48.620Z,98894.69
2023-02-14T08:23:17.946Z,98890.63
2023-02-14T08:25:45.537Z,98894.63
2023-02-14T08:28:13.686Z,98898.16
2023-02-14T08:30:41.788Z,98902.06
2023-02-14T08:33:09.862Z,98889.84
2023-02-14T08:35:37.542Z,98890.59
2023-02-14T08:38:05.730Z,98887.25
2023-02-14T08:40:35.175Z,98890.47
2023-02-14T08:43:02.760Z,98893.47
2023-02-14T08:45:30.361Z,98893.53
2023-02-14T08:48:02.155Z,98889.72
2023-02-14T08:50:30.296Z,98879.72
2023-02-14T08:52:58.137Z,98882.19
2023-02-14T08:55:25.738Z,98888.16
2023-02-14T08:57:56.527Z,98884.78
2023-02-14T09:00:24.305Z,98885.78
2023-02-14T09:02:52.596Z,98892.75
2023-02-14T09:05:20.542Z,98890.91
2023-02-14T09:07:48.197Z,98896.06
2023-02-14T09:10:16.926Z,98891.78
2023-02-14T09:12:44.581Z,98892.31
2023-02-14T09:15:13.771Z,98879.72
2023-02-14T09:17:41.946Z,98891.84
2023-02-14T09:20:11.488Z,98884.16
2023-02-14T09:22:39.591Z,98887.94
2023-02-14T09:25:07.416Z,98888.94
2023-02-14T09:27:35.037Z,98891.22
2023-02-14T09:30:02.772Z,98891.38
2023-02-14T09:32:31.809Z,98887.94
2023-02-14T09:35:17.422Z,98884.88
2023-02-14T09:37:44.934Z,98882.81
2023-02-14T09:40:14.467Z,98886.00
2023-02-14T09:42:49.458Z,98887.25
2023-02-14T09:45:20.770Z,98880.63
2023-02-14T09:47:53.949Z,98887.84
2023-02-14T09:50:25.302Z,98876.06
2023-02-14T09:52:57.532Z,98891.16
2023-02-14T09:55:27.105Z,98877.19
2023-02-14T09:58:08.187Z,98875.97
2023-02-14T10:00:39.601Z,98878.50
2023-02-14T10:03:22.663Z,98871.81
2023-02-14T10:05:56.447Z,98866.16
2023-02-14T10:08:33.355Z,98871.91
2023-02-14T10:11:05.307Z,98870.00
2023-02-14T10:13:38.808Z,98875.97
2023-02-14T10:16:12.610Z,98885.94
2023-02-14T10:18:46.224Z,98876.44
2023-02-14T10:21:20.250Z,98881.44
2023-02-14T10:23:53.777Z,98878.13
2023-02-14T10:26:26.036Z,98877.00
2023-02-14T10:28:54.220Z,98879.31
2023-02-14T10:31:23.171Z,98883.56
2023-02-14T10:33:57.529Z,98884.75
2023-02-14T10:36:47.031Z,98867.09
2023-02-14T10:39:44.517Z,98869.69
2023-02-14T10:42:18.257Z,98863.34
2023-02-14T10:44:49.468Z,98868.38
2023-02-14T10:47:27.648Z,98871.84
2023-02-14T10:49:59.796Z,98857.97
2023-02-14T10:52:31.119Z,98863.50
2023-02-14T10:55:00.297Z,98854.63
2023-02-14T10:57:29.743Z,98854.91
2023-02-14T10:59:59.570Z,98849.53
2023-02-14T11:02:33.143Z,98846.19
2023-02-14T11:05:03.861Z,98845.91
2023-02-14T11:07:31.460Z,98845.41
2023-02-14T11:09:59.225Z,98842.66
2023-02-14T11:12:35.322Z,98842.22
2023-02-14T11:15:20.375Z,98836.19
2023-02-14T11:17:48.028Z,98833.47
2023-02-14T11:20:26.448Z,98833.81
2023-02-14T11:22:54.409Z,98835.56
2023-02-14T11:25:23.526Z,98835.94
2023-02-14T11:27:55.483Z,98822.06
2023-02-14T11:30:27.596Z,98818.34
2023-02-14T11:32:56.311Z,98831.81
2023-02-14T11:35:34.441Z,98812.56
2023-02-14T11:38:03.485Z,98818.81
2023-02-14T11:40:32.742Z,98807.16
2023-02-14T11:43:13.991Z,98801.34
2023-02-14T11:45:43.684Z,98805.47
2023-02-14T11:48:24.805Z,98801.88
2023-02-14T11:51:03.433Z,98799.59
2023-02-14T11:53:46.748Z,98801.16
2023-02-14T11:56:15.130Z,98794.56
2023-02-14T11:58:47.210Z,98791.38
2023-02-14T12:01:24.091Z,98785.81
2023-02-14T12:03:52.380Z,98783.09
2023-02-14T12:06:25.304Z,98786.25
2023-02-14T12:08:52.866Z,98777.50
2023-02-14T12:11:22.195Z,98770.59
2023-02-14T12:13:54.688Z,98769.22
2023-02-14T12:16:27.466Z,98767.41
2023-02-14T12:18:59.971Z,98755.66
2023-02-14T12:21:44.134Z,98762.38
2023-02-14T12:24:21.975Z,98751.06
2023-02-14T12:26:53.345Z,98746.88
2023-02-14T12:29:26.369Z,98753.84
2023-02-14T12:31:55.690Z,98741.19
2023-02-14T12:34:23.264Z,98749.78
2023-02-14T12:37:05.013Z,98738.19
2023-02-14T12:39:37.585Z,98730.91
2023-02-14T12:42:15.693Z,98728.19
2023-02-14T12:44:47.161Z,98732.41
2023-02-14T12:47:18.967Z,98726.44
2023-02-14T12:50:01.472Z,98721.97
2023-02-14T12:52:40.876Z,98726.78
2023-02-14T12:55:26.355Z,98710.69
2023-02-14T12:57:57.642Z,98722.50
2023-02-14T13:00:33.033Z,98715.94
2023-02-14T13:03:26.928Z,98715.84
2023-02-14T13:05:59.734Z,98713.97
2023-02-14T13:08:44.104Z,98714.47
2023-02-14T13:11:17.438Z,98712.50
2023-02-14T13:13:55.829Z,98707.50
2023-02-14T13:16:28.014Z,98707.31
2023-02-14T13:19:00.457Z,98711.56
2023-02-14T13:21:31.261Z,98713.38
2023-02-14T13:24:07.640Z,98707.50
2023-02-14T13:26:39.009Z,98712.25
2023-02-14T13:29:10.610Z,98700.53
2023-02-14T13:31:38.956Z,98700.66
2023-02-14T13:34:10.081Z,98703.13
2023-02-14T13:36:38.022Z,98703.78
2023-02-14T13:39:07.949Z,98691.19
2023-02-14T13:41:35.804Z,98693.38
2023-02-14T13:44:05.337Z,98687.88
2023-02-14T13:46:52.642Z,98693.41
2023-02-14T13:49:27.450Z,98686.28
2023-02-14T13:51:56.445Z,98686.03
2023-02-14T13:54:35.955Z,98692.22
2023-02-14T13:57:05.827Z,98686.53
2023-02-14T13:59:34.965Z,98691.94
2023-02-14T14:02:40.047Z,98690.25
2023-02-14T14:05:42.760Z,98688.09
2023-02-14T14:08:52.041Z,98683.31
2023-02-14T14:12:00.817Z,98686.50
2023-02-14T14:14:39.557Z,98686.47
2023-02-14T14:17:21.828Z,98690.78
2023-02-14T14:19:50.274Z,98686.22
2023-02-14T14:22:19.860Z,98677.84
2023-02-14T14:25:01.892Z,98658.44
2023-02-14T14:27:33.098Z,98673.16
2023-02-14T14:30:02.917Z,98672.72
2023-02-14T14:32:32.303Z,98657.41
2023-02-14T14:35:00.978Z,98669.06
2023-02-14T14:37:29.845Z,98668.00
2023-02-14T14:39:59.161Z,98663.13
2023-02-14T14:42:28.633Z,98664.75
2023-02-14T14:44:58.127Z,98664.75
2023-02-14T14:47:28.851Z,98666.66
2023-02-14T14:50:00.325Z,98663.84
2023-02-14T14:52:35.064Z,98650.81
2023-02-14T14:55:04.224Z,98658.44
2023-02-14T14:57:31.791Z,98651.19
2023-02-14T15:00:22.147Z,98656.38
2023-02-14T15:03:03.806Z,98646.34
2023-02-14T15:05:33.846Z,98648.97
2023-02-14T15:08:17.551Z,98644.66
2023-02-14T15:10:49.270Z,98633.47
2023-02-14T15:13:34.707Z,98642.03
2023-02-14T15:16:03.926Z,98639.72
2023-02-14T15:18:32.981Z,98640.16
2023-02-14T15:21:01.294Z,98636.50
2023-02-14T15:23:29.154Z,98638.25
2023-02-14T15:25:56.887Z,98643.16
2023-02-14T15:28:28.938Z,98637.06
2023-02-14T15:30:59.406Z,98647.47
2023-02-14T15:33:27.520Z,98638.84
2023-02-14T15:35:57.894Z,98640.59
2023-02-14T15:38:26.242Z,98639.47
2023-02-14T15:40:54.617Z,98644.59
2023-02-14T15:43:30.763Z,98638.34
2023-02-14T15:46:00.328Z,98637.81
2023-02-14T15:48:30.184Z,98651.03
2023-02-14T15:51:00.533Z,98636.56
2023-02-14T15:53:34.549Z,98649.44
2023-02-14T15:56:08.243Z,98645.66
2023-02-14T15:58:36.708Z,98639.28
2023-02-14T16:01:04.829Z,98651.88
2023-02-14T16:03:35.976Z,98642.69
2023-02-14T16:06:05.704Z,98639.69
2023-02-14T16:08:35.396Z,98639.41
2023-02-14T16:11:05.076Z,98641.94
2023-02-14T16:13:34.556Z,98638.94
2023-02-14T16:16:03.788Z,98638.19
2023-02-14T16:18:37.140Z,98642.28
2023-02-14T16:21:18.195Z,98639.09
2023-02-14T16:23:46.444Z,98638.66
2023-02-14T16:26:14.818Z,98634.53
2023-02-14T16:28:43.467Z,98645.81
2023-02-14T16:31:16.765Z,98649.59
2023-02-14T16:33:44.442Z,98646.81
2023-02-14T16:36:18.931Z,98659.44
2023-02-14T16:38:47.031Z,98655.41
2023-02-14T16:41:17.728Z,98655.00
2023-02-14T16:43:45.843Z,98661.47
2023-02-14T16:46:14.795Z,98663.91
2023-02-14T16:48:42.552Z,98664.75
2023-02-14T16:51:12.196Z,98653.28
2023-02-14T16:53:42.257Z,98666.91
2023-02-14T16:56:14.768Z,98664.06
2023-02-14T16:58:42.471Z,98666.34
2023-02-14T17:01:10.124Z,98665.66
2023-02-14T17:03:39.900Z,98665.16
2023-02-14T17:06:08.164Z,98674.06
2023-02-14T17:08:35.931Z,98670.16
2023-02-14T17:11:06.235Z,98670.31
2023-02-14T17:13:34.982Z,98675.53
2023-02-14T17:16:02.687Z,98675.09
2023-02-14T17:18:31.585Z,98681.66
2023-02-14T17:21:00.474Z,98675.03
2023-02-14T17:23:28.408Z,98687.81
2023-02-14T17:25:56.331Z,98689.72
2023-02-14T17:28:26.539Z,98684.50
2023-02-14T17:30:54.577Z,98687.97
2023-02-14T17:33:22.892Z,98686.72
2023-02-14T17:35:51.028Z,98695.50
2023-02-14T17:38:20.125Z,98698.97
2023-02-14T17:40:47.670Z,98695.72
2023-02-14T17:43:15.386Z,98694.03
2023-02-14T17:45:44.252Z,98695.34
2023-02-14T17:48:11.893Z,98693.72
2023-02-14T17:50:39.719Z,98690.72
2023-02-14T17:53:07.235Z,98699.16
2023-02-14T17:55:37.316Z,98689.50
2023-02-14T17:58:05.379Z,98687.72
2023-02-14T18:00:32.942Z,98685.59
2023-02-14T18:03:01.901Z,98689.50
2023-02-14T18:05:29.514Z,98685.59
2023-02-14T18:07:57.816Z,98690.13
2023-02-14T18:10:25.340Z,98690.31
2023-02-14T18:12:52.829Z,98686.00
2023-02-14T18:15:20.913Z,98678.97
2023-02-14T18:17:50.015Z,98675.50
2023-02-14T18:20:19.210Z,98667.59
2023-02-14T18:22:46.799Z,98668.91
2023-02-14T18:25:14.476Z,98659.13
2023-02-14T18:27:41.984Z,98676.06
2023-02-14T18:30:10.804Z,98668.09
2023-02-14T18:32:38.337Z,98666.66
2023-02-14T18:35:06.501Z,98671.91
2023-02-14T18:37:35.562Z,98674.31
2023-02-14T18:40:03.894Z,98671.31
2023-02-14T18:42:31.734Z,98673.69
2023-02-14T18:44:59.244Z,98678.75
2023-02-14T18:47:27.047Z,98673.00
2023-02-14T18:49:54.678Z,98672.94
2023-02-14T18:52:22.278Z,98678.13
2023-02-14T18:54:51.872Z,98670.16
2023-02-14T18:57:19.374Z,98669.78
2023-02-14T18:59:47.087Z,98669.50
2023-02-14T19:02:14.914Z,98665.63
2023-02-14T19:04:42.748Z,98659.16
2023-02-14T19:07:10.310Z,98663.28
2023-02-14T19:09:40.200Z,98666.03
2023-02-14T19:12:09.510Z,98669.72
2023-02-14T19:14:37.466Z,98667.47
2023-02-14T19:17:05.672Z,98669.84
2023-02-14T19:19:33.269Z,98664.56
2023-02-14T19:22:01.620Z,98669.63
2023-02-14T19:24:29.204Z,98665.88
2023-02-14T19:26:57.718Z,98659.91
2023-02-14T19:29:26.837Z,98660.13
2023-02-14T19:31:55.651Z,98661.00
2023-02-14T19:34:25.312Z,98659.06
2023-02-14T19:36:54.487Z,98653.16
2023-02-14T19:39:22.995Z,98640.84
2023-02-14T19:41:52.242Z,98648.56
2023-02-14T19:44:19.874Z,98650.34
2023-02-14T19:46:48.866Z,98651.63
2023-02-14T19:49:17.881Z,98652.00
2023-02-14T19:51:46.141Z,98655.34
2023-02-14T19:54:14.036Z,98653.66
2023-02-14T19:56:44.180Z,98639.50
2023-02-14T19:59:15.161Z,98641.31
2023-02-14T20:01:46.244Z,98636.38
2023-02-14T20:04:17.475Z,98642.50
2023-02-14T20:06:45.839Z,98641.44
2023-02-14T20:09:14.163Z,98647.25
2023-02-14T20:11:46.620Z,98643.00
2023-02-14T20:14:17.456Z,98639.19
2023-02-14T20:16:45.523Z,98649.28
2023-02-14T20:19:17.377Z,98647.69
2023-02-14T20:21:45.782Z,98646.16
2023-02-14T20:24:16.710Z,98647.34
2023-02-14T20:26:44.264Z,98640.25
2023-02-14T20:29:12.235Z,98643.25
2023-02-14T20:31:42.068Z,98637.03
2023-02-14T20:34:10.238Z,98635.13
2023-02-14T20:36:39.497Z,98632.66
2023-02-14T20:39:08.424Z,98628.88
2023-02-14T20:41:36.425Z,98629.53
2023-02-14T20:44:05.577Z,98629.13
2023-02-14T20:46:33.604Z,98610.69
2023-02-14T20:49:01.519Z,98606.69
2023-02-14T20:51:29.376Z,98614.97
2023-02-14T20:53:58.322Z,98610.69
2023-02-14T20:56:25.838Z,98614.97
2023-02-14T20:58:53.789Z,98610.59
2023-02-14T21:01:22.804Z,98601.00
2023-02-14T21:03:51.938Z,98596.44
2023-02-14T21:06:20.967Z,98606.19
2023-02-14T21:08:49.513Z,98601.22
2023-02-14T21:11:19.841Z,98603.16
2023-02-14T21:13:48.072Z,98592.38
2023-02-14T21:16:17.556Z,98597.91
2023-02-14T21:18:48.646Z,98607.34
2023-02-14T21:21:19.890Z,98602.97
2023-02-14T21:23:49.090Z,98596.22
2023-02-14T21:26:18.318Z,98595.66
2023-02-14T21:28:46.349Z,98595.81
2023-02-14T21:31:15.925Z,98597.44
2023-02-14T21:33:43.537Z,98588.56
2023-02-14T21:36:12.900Z,98587.56
2023-02-14T21:38:40.805Z,98588.41
2023-02-14T21:41:09.782Z,98585.22
2023-02-14T21:43:40.319Z,98582.00
2023-02-14T21:46:08.392Z,98583.97
2023-02-14T21:48:54.059Z,98582.13
2023-02-14T21:51:22.158Z,98573.81
2023-02-14T21:53:50.060Z,98578.41
2023-02-14T21:56:20.127Z,98572.09
2023-02-14T21:58:49.859Z,98572.72
2023-02-14T22:01:18.844Z,98575.13
2023-02-14T22:03:46.736Z,98574.84
2023-02-14T22:06:14.650Z,98570.75
2023-02-14T22:08:42.853Z,98574.13
2023-02-14T22:11:12.298Z,98571.63
2023-02-14T22:13:39.867Z,98573.91
2023-02-14T22:16:10.671Z,98569.28
2023-02-14T22:18:38.529Z,98573.34
2023-02-14T22:21:07.733Z,98560.66
2023-02-14T22:23:35.978Z,98562.47
2023-02-14T22:26:14.174Z,98562.19
2023-02-14T22:28:42.620Z,98551.31
2023-02-14T22:31:12.340Z,98554.06
2023-02-14T22:33:39.926Z,98561.22
2023-02-14T22:36:08.849Z,98558.50
2023-02-14T22:38:37.150Z,98567.63
2023-02-14T22:41:09.223Z,98570.00
2023-02-14T22:43:37.315Z,98570.84
2023-02-14T22:46:06.087Z,98568.44
2023-02-14T22:48:35.973Z,98571.25
2023-02-14T22:51:11.112Z,98566.91
2023-02-14T22:53:39.770Z,98562.63
2023-02-14T22:56:14.987Z,98561.78
2023-02-14T22:58:42.716Z,98555.75
2023-02-14T23:01:14.063Z,98559.94
2023-02-14T23:03:43.128Z,98559.03
2023-02-14T23:06:11.152Z,98552.25
2023-02-14T23:08:39.953Z,98551.53
2023-02-14T23:11:09.431Z,98555.41
2023-02-14T23:13:55.177Z,98552.81
2023-02-14T23:16:40.657Z,98552.94
2023-02-14T23:19:29.671Z,98548.66
2023-02-14T23:21:57.397Z,98540.03
2023-02-14T23:24:25.346Z,98537.56
2023-02-14T23:26:56.101Z,98538.03
2023-02-14T23:29:23.874Z,98531.38
2023-02-14T23:31:51.543Z,98531.81
2023-02-14T23:34:20.892Z,98529.44
2023-02-14T23:36:48.435Z,98531.19
2023-02-14T23:39:15.998Z,98529.50
2023-02-14T23:41:49.902Z,98535.09
2023-02-14T23:44:21.959Z,98534.88
2023-02-14T23:46:50.603Z,98533.72
2023-02-14T23:49:19.837Z,98513.44
2023-02-14T23:51:49.245Z,98523.81
2023-02-14T23:54:17.367Z,98523.09
2023-02-14T23:56:45.646Z,98520.22
2023-02-14T23:59:14.429Z,98510.88
